Time;durP1;ratioP1;P1;durP2;ratioP2;P2;SDS_P1;SDS_P2;PMS_P1;PMS_P2;Temp;Humidity;BMP_temperature;BMP_pressure;BME280_temperature;BME280_humidity;BME280_pressure;Samples;Min_cycle;Max_cycle;Signal;HPM_P1;HPM_P2
2022/03/23 00:01:13;;;;;;;0.65;0.65;;;;;;;-0.75;58.07;100494.28;4882039;29;20052;-88
2022/03/23 00:03:41;;;;;;;0.68;0.68;;;;;;;-0.83;58.49;100499.44;4881375;29;20053;-87
2022/03/23 00:06:09;;;;;;;0.60;0.60;;;;;;;-0.92;58.42;100499.25;4880224;29;20049;-86
2022/03/23 00:08:37;;;;;;;0.60;0.60;;;;;;;-1.01;58.77;100493.91;4846638;29;20148;-85
2022/03/23 00:11:04;;;;;;;0.80;0.80;;;;;;;-1.06;58.52;100491.66;4862407;29;20055;-84
2022/03/23 00:13:31;;;;;;;0.70;0.70;;;;;;;-1.11;58.73;100492.06;4878864;29;20053;-85
2022/03/23 00:15:58;;;;;;;0.60;0.60;;;;;;;-1.11;58.57;100485.94;4878494;29;20152;-86
2022/03/23 00:18:26;;;;;;;0.60;0.60;;;;;;;-1.10;58.22;100482.28;4878599;29;20069;-85
2022/03/23 00:20:53;;;;;;;0.50;0.50;;;;;;;-1.16;58.41;100483.69;4878390;29;20199;-83
2022/03/23 00:23:21;;;;;;;0.50;0.50;;;;;;;-1.14;58.12;100480.88;4878516;29;20057;-86
2022/03/23 00:25:48;;;;;;;0.50;0.50;;;;;;;-1.13;58.18;100479.91;4865882;29;20082;-86
2022/03/23 00:28:15;;;;;;;0.57;0.57;;;;;;;-1.15;58.35;100485.34;4884758;29;20044;-88
2022/03/23 00:30:43;;;;;;;0.50;0.50;;;;;;;-1.06;58.45;100477.56;4886448;29;20045;-88
2022/03/23 00:33:29;;;;;;;0.50;0.50;;;;;;;-0.98;58.04;100475.94;4873847;29;20054;-89
2022/03/23 00:35:57;;;;;;;0.70;0.70;;;;;;;-0.96;58.00;100474.00;4860722;29;20049;-85
2022/03/23 00:38:24;;;;;;;0.60;0.60;;;;;;;-0.99;58.39;100463.63;4864405;29;20137;-85
2022/03/23 00:40:51;;;;;;;0.60;0.60;;;;;;;-1.07;58.91;100466.13;4875560;29;20076;-85
2022/03/23 00:43:19;;;;;;;0.50;0.50;;;;;;;-1.08;59.25;100466.28;4878469;29;20057;-88
2022/03/23 00:45:46;;;;;;;0.57;0.57;;;;;;;-1.12;59.50;100463.03;4883334;29;20057;-87
2022/03/23 00:48:14;;;;;;;0.60;0.60;;;;;;;-1.15;59.82;100469.44;4854154;29;20060;-90
2022/03/23 00:50:42;;;;;;;0.52;0.52;;;;;;;-1.25;60.13;100457.97;4881397;29;20045;-87
2022/03/23 00:53:09;;;;;;;0.70;0.70;;;;;;;-1.16;60.11;100462.47;4884140;29;20512;-85
2022/03/23 00:55:36;;;;;;;0.60;0.60;;;;;;;-1.07;59.70;100457.34;4893158;29;20057;-89
2022/03/23 00:58:03;;;;;;;0.60;0.60;;;;;;;-1.08;59.39;100458.31;4867650;29;20081;-89
2022/03/23 01:00:30;;;;;;;0.70;0.70;;;;;;;-0.92;58.85;100459.47;4878449;29;20053;-87
2022/03/23 01:02:59;;;;;;;0.80;0.80;;;;;;;-1.00;58.88;100455.84;4846751;29;20053;-88
2022/03/23 01:05:27;;;;;;;0.70;0.70;;;;;;;-1.04;58.68;100457.91;4862808;29;20057;-88
2022/03/23 01:07:55;;;;;;;0.80;0.80;;;;;;;-1.06;58.28;100454.56;4879391;29;20076;-87
2022/03/23 01:10:24;;;;;;;0.80;0.80;;;;;;;-0.94;57.90;100452.63;4879142;29;20049;-87
2022/03/23 01:12:54;;;;;;;0.60;0.60;;;;;;;-0.97;57.85;100456.41;4862637;29;20049;-87
2022/03/23 01:15:21;;;;;;;0.40;0.40;;;;;;;-0.99;57.80;100458.34;4879079;29;20080;-87
2022/03/23 01:17:49;;;;;;;0.60;0.60;;;;;;;-1.05;58.30;100456.25;4878919;29;20049;-87
2022/03/23 01:20:19;;;;;;;0.60;0.60;;;;;;;-1.18;58.83;100453.00;4862347;29;20049;-87
2022/03/23 01:22:47;;;;;;;0.70;0.70;;;;;;;-1.19;59.18;100446.00;4878733;29;20170;-88
2022/03/23 01:25:16;;;;;;;0.80;0.80;;;;;;;-1.19;58.93;100446.00;4878625;29;20093;-89
2022/03/23 01:27:44;;;;;;;0.68;0.68;;;;;;;-1.19;58.69;100446.00;4866110;29;20060;-87
2022/03/23 01:30:14;;;;;;;0.70;0.70;;;;;;;-1.18;58.85;100442.38;4868466;29;20053;-88
2022/03/23 01:32:42;;;;;;;0.47;0.47;;;;;;;-1.28;59.30;100439.69;4881680;29;20103;-88
2022/03/23 01:35:10;;;;;;;0.50;0.50;;;;;;;-1.37;59.88;100438.69;4878494;29;20141;-89
2022/03/23 01:37:38;;;;;;;0.40;0.40;;;;;;;-1.49;60.07;100439.75;4877391;29;20431;-88
2022/03/23 01:40:08;;;;;;;0.60;0.60;;;;;;;-1.54;60.14;100434.84;4878392;29;20488;-89
2022/03/23 01:42:38;;;;;;;0.60;0.60;;;;;;;-1.47;59.94;100437.78;4877716;29;20113;-89
2022/03/23 01:45:07;;;;;;;0.57;0.57;;;;;;;-1.37;59.44;100433.41;4861666;29;20137;-88
2022/03/23 01:47:34;;;;;;;0.55;0.55;;;;;;;-1.41;59.48;100431.16;4877572;29;20053;-88
2022/03/23 01:50:04;;;;;;;0.52;0.52;;;;;;;-1.45;59.95;100433.19;4876462;29;20108;-88
2022/03/23 01:52:32;;;;;;;0.70;0.70;;;;;;;-1.47;59.79;100427.19;4878351;29;20485;-88
2022/03/23 01:55:06;;;;;;;0.52;0.52;;;;;;;-1.37;59.34;100432.53;4881099;29;20045;-87
2022/03/23 01:57:35;;;;;;;0.70;0.70;;;;;;;-1.38;58.91;100423.75;4865700;29;20053;-88
2022/03/23 02:00:06;;;;;;;0.57;0.57;;;;;;;-1.34;59.18;100429.66;4881943;29;20412;-88
2022/03/23 02:02:42;;;;;;;0.60;0.60;;;;;;;-1.32;59.43;100425.03;4880540;29;20053;-88
2022/03/23 02:05:14;;;;;;;0.60;0.60;;;;;;;-1.39;59.50;100421.25;4880208;29;20057;-87
2022/03/23 02:07:52;;;;;;;0.60;0.60;;;;;;;-1.37;59.27;100427.25;4866338;29;20134;-88
2022/03/23 02:10:19;;;;;;;0.50;0.50;;;;;;;-1.43;59.58;100423.31;4864910;29;20061;-89
2022/03/23 02:12:52;;;;;;;0.40;0.40;;;;;;;-1.55;59.69;100416.44;4865066;29;20049;-87
2022/03/23 02:15:21;;;;;;;0.65;0.65;;;;;;;-1.58;59.98;100419.34;4867497;29;20056;-87
2022/03/23 02:17:53;;;;;;;0.60;0.60;;;;;;;-1.62;59.96;100418.78;4889016;29;20053;-88
2022/03/23 02:20:21;;;;;;;0.55;0.55;;;;;;;-1.68;59.91;100419.28;4877040;29;20075;-89
2022/03/23 02:22:48;;;;;;;0.70;0.70;;;;;;;-1.71;59.88;100416.06;4891332;29;20233;-88
2022/03/23 02:25:23;;;;;;;0.68;0.68;;;;;;;-1.78;59.65;100413.09;4889352;29;20021;-87
2022/03/23 02:27:50;;;;;;;0.60;0.60;;;;;;;-1.88;59.52;100397.16;4904993;29;20052;-87
2022/03/23 02:30:18;;;;;;;0.55;0.55;;;;;;;-1.85;59.85;100418.09;4888938;29;20029;-87
2022/03/23 02:32:45;;;;;;;0.50;0.50;;;;;;;-1.86;59.83;100418.22;4893018;29;20053;-87
2022/03/23 02:35:12;;;;;;;0.40;0.40;;;;;;;-1.88;59.89;100413.03;4866835;29;20052;-88
2022/03/23 02:37:40;;;;;;;0.60;0.60;;;;;;;-1.89;59.99;100421.13;4881878;29;20048;-87
2022/03/23 02:40:08;;;;;;;0.60;0.60;;;;;;;-2.06;60.34;100404.00;4865119;29;20428;-89
2022/03/23 02:42:38;;;;;;;0.60;0.60;;;;;;;-2.14;60.60;100411.75;4880286;29;20068;-89
2022/03/23 02:45:06;;;;;;;0.60;0.60;;;;;;;-2.28;60.78;100408.47;4881796;29;20092;-89
2022/03/23 02:47:34;;;;;;;0.57;0.57;;;;;;;-2.33;60.99;100408.00;4880985;29;20052;-89
2022/03/23 02:50:01;;;;;;;0.60;0.60;;;;;;;-2.36;61.52;100410.88;4881116;29;20076;-88
2022/03/23 02:52:31;;;;;;;0.50;0.50;;;;;;;-2.42;61.91;100414.88;4880999;29;20145;-89
2022/03/23 03:03:38;;;;;;;0.50;0.50;;;;;;;-2.33;62.09;100402.72;4880148;29;20056;-89
2022/03/23 03:06:05;;;;;;;0.60;0.60;;;;;;;-2.24;62.33;100401.94;4881091;29;20056;-88
2022/03/23 03:08:48;;;;;;;0.60;0.60;;;;;;;-2.24;62.17;100394.00;4864874;29;20552;-89
2022/03/23 03:11:17;;;;;;;0.50;0.50;;;;;;;-2.32;62.54;100400.91;4879329;29;20052;-87
2022/03/23 03:13:48;;;;;;;0.50;0.50;;;;;;;-2.43;62.97;100399.13;4880427;29;20055;-88
2022/03/23 03:16:16;;;;;;;0.60;0.60;;;;;;;-2.52;63.38;100407.84;4863853;29;20105;-87
2022/03/23 03:18:43;;;;;;;0.40;0.40;;;;;;;-2.61;63.67;100393.56;4863095;29;20370;-87
2022/03/23 03:21:11;;;;;;;0.65;0.65;;;;;;;-2.55;63.96;100384.31;4878754;29;20109;-90
2022/03/23 03:23:41;;;;;;;0.60;0.60;;;;;;;-2.47;63.71;100398.56;4848618;29;20057;-87
2022/03/23 03:26:10;;;;;;;0.60;0.60;;;;;;;-2.48;63.72;100388.09;4881106;29;20057;-87
2022/03/23 03:28:38;;;;;;;0.68;0.68;;;;;;;-2.45;63.50;100387.88;4881023;29;20394;-89
2022/03/23 03:31:08;;;;;;;0.50;0.50;;;;;;;-2.42;63.39;100383.16;4880985;29;20049;-88
2022/03/23 03:33:38;;;;;;;0.50;0.50;;;;;;;-2.44;63.47;100382.44;4880950;29;20059;-89
2022/03/23 03:36:05;;;;;;;0.55;0.55;;;;;;;-2.38;63.13;100380.25;4882825;29;20497;-88
2022/03/23 03:38:33;;;;;;;0.45;0.45;;;;;;;-2.41;62.81;100392.75;4883926;29;20089;-88
2022/03/23 03:41:02;;;;;;;0.63;0.63;;;;;;;-2.46;62.96;100387.00;4883204;29;20097;-89
2022/03/23 03:43:30;;;;;;;0.60;0.60;;;;;;;-2.48;62.69;100393.38;4878982;29;20057;-89
2022/03/23 03:45:58;;;;;;;0.50;0.50;;;;;;;-2.56;62.99;100388.72;4866187;29;20053;-88
2022/03/23 03:48:26;;;;;;;0.52;0.52;;;;;;;-2.58;62.89;100387.19;4872841;29;20074;-90
2022/03/23 03:50:57;;;;;;;0.50;0.50;;;;;;;-2.65;63.10;100390.34;4869267;29;20055;-88
2022/03/23 03:53:24;;;;;;;0.45;0.45;;;;;;;-2.64;63.25;100394.66;4880196;29;20460;-89
2022/03/23 03:56:03;;;;;;;0.60;0.60;;;;;;;-2.69;63.26;100386.25;4863274;29;20516;-89
2022/03/23 03:58:30;;;;;;;0.50;0.50;;;;;;;-2.60;63.07;100389.97;4863483;29;20052;-89
2022/03/23 04:00:57;;;;;;;0.60;0.60;;;;;;;-2.53;62.89;100390.28;4880087;29;20049;-89
2022/03/23 04:03:24;;;;;;;0.55;0.55;;;;;;;-2.49;63.00;100395.19;4880316;29;20051;-88
2022/03/23 04:05:52;;;;;;;0.70;0.70;;;;;;;-2.44;63.04;100385.09;4880363;29;20048;-88
2022/03/23 04:08:19;;;;;;;0.68;0.68;;;;;;;-2.49;63.30;100374.06;4862953;29;20341;-88
2022/03/23 04:10:45;;;;;;;0.47;0.47;;;;;;;-2.43;63.46;100380.63;4879226;29;20587;-88
2022/03/23 04:13:13;;;;;;;0.60;0.60;;;;;;;-2.40;63.23;100381.22;4880040;29;20432;-88
2022/03/23 04:15:40;;;;;;;0.57;0.57;;;;;;;-2.32;63.28;100377.94;4884091;29;20053;-87
2022/03/23 04:18:07;;;;;;;0.47;0.47;;;;;;;-2.28;63.08;100375.88;4870463;29;20059;-89
2022/03/23 04:20:35;;;;;;;0.55;0.55;;;;;;;-2.27;63.26;100378.41;4888465;29;20053;-88
2022/03/23 04:23:02;;;;;;;0.50;0.50;;;;;;;-2.26;63.25;100374.78;4883459;29;20101;-88
2022/03/23 04:25:29;;;;;;;0.63;0.63;;;;;;;-2.27;63.64;100369.63;4881914;29;20053;-89
2022/03/23 04:27:58;;;;;;;0.50;0.50;;;;;;;-2.26;63.62;100368.66;4879820;29;20044;-89
2022/03/23 04:30:31;;;;;;;0.50;0.50;;;;;;;-2.13;63.42;100371.09;4882072;29;20136;-88
2022/03/23 04:33:00;;;;;;;0.50;0.50;;;;;;;-2.12;62.94;100376.28;4879039;29;20055;-89
2022/03/23 04:35:28;;;;;;;0.50;0.50;;;;;;;-2.07;62.98;100379.38;4863164;29;20090;-88
2022/03/23 04:37:56;;;;;;;0.70;0.70;;;;;;;-2.00;62.64;100372.59;4863283;29;20108;-89
2022/03/23 04:40:23;;;;;;;0.50;0.50;;;;;;;-1.99;62.67;100373.44;4863131;29;20104;-88
2022/03/23 04:42:50;;;;;;;0.55;0.55;;;;;;;-1.85;62.35;100374.88;4881237;29;20445;-89
2022/03/23 04:45:18;;;;;;;0.60;0.60;;;;;;;-1.83;62.02;100357.91;4883795;29;20079;-89
2022/03/23 04:47:45;;;;;;;0.50;0.50;;;;;;;-1.68;61.68;100369.00;4865892;29;20079;-88
2022/03/23 04:50:14;;;;;;;0.60;0.60;;;;;;;-1.68;62.01;100366.34;4885161;29;20052;-90
2022/03/23 04:52:43;;;;;;;0.50;0.50;;;;;;;-1.61;62.03;100364.84;4887184;29;20072;-88
2022/03/23 04:55:13;;;;;;;0.70;0.70;;;;;;;-1.60;62.08;100363.03;4854288;29;20121;-88
2022/03/23 04:57:42;;;;;;;0.57;0.57;;;;;;;-1.46;61.77;100367.16;4867574;29;20057;-89
2022/03/23 05:00:13;;;;;;;0.68;0.68;;;;;;;-1.38;61.57;100370.78;4881421;29;20144;-88
2022/03/23 05:02:50;;;;;;;0.55;0.55;;;;;;;-1.26;61.38;100362.75;4880214;29;20080;-88
2022/03/23 05:05:18;;;;;;;0.52;0.52;;;;;;;-1.16;60.98;100366.28;4879729;29;20053;-88
2022/03/23 05:07:45;;;;;;;0.57;0.57;;;;;;;-1.04;60.76;100359.84;4884698;29;20144;-87
2022/03/23 05:10:14;;;;;;;0.60;0.60;;;;;;;-0.89;60.62;100353.22;4854011;29;20044;-88
2022/03/23 05:12:42;;;;;;;0.60;0.60;;;;;;;-0.76;60.14;100354.72;4880404;29;20494;-89
2022/03/23 05:15:11;;;;;;;0.30;0.30;;;;;;;-0.60;59.40;100351.56;4880407;29;20083;-88
2022/03/23 05:17:40;;;;;;;0.50;0.50;;;;;;;-0.48;58.96;100347.75;4882455;29;20057;-90
2022/03/23 05:20:08;;;;;;;0.70;0.70;;;;;;;-0.35;58.70;100352.81;4879688;29;20052;-90
2022/03/23 05:22:39;;;;;;;0.55;0.55;;;;;;;-0.19;58.39;100350.41;4862208;29;20049;-88
2022/03/23 05:25:07;;;;;;;0.50;0.50;;;;;;;-0.06;58.25;100345.63;4880204;29;20424;-88
2022/03/23 05:27:36;;;;;;;0.70;0.70;;;;;;;0.12;57.70;100352.84;4883353;29;20053;-88
2022/03/23 05:30:07;;;;;;;0.60;0.60;;;;;;;0.31;57.09;100358.09;4869102;29;20048;-88
2022/03/23 05:32:34;;;;;;;0.63;0.63;;;;;;;0.45;56.83;100351.47;4886584;29;20044;-90
2022/03/23 05:35:05;;;;;;;0.68;0.68;;;;;;;0.67;56.26;100354.72;4886263;29;20045;-90
2022/03/23 05:37:32;;;;;;;0.60;0.60;;;;;;;0.84;56.04;100354.78;4886112;29;20140;-89
2022/03/23 05:39:59;;;;;;;0.50;0.50;;;;;;;1.00;55.61;100350.63;4885797;29;20059;-86
2022/03/23 05:42:28;;;;;;;0.80;0.80;;;;;;;1.17;55.29;100347.16;4868409;29;20057;-87
2022/03/23 05:44:55;;;;;;;0.80;0.80;;;;;;;1.37;54.91;100352.31;4885387;29;20057;-87
2022/03/23 05:47:22;;;;;;;0.70;0.70;;;;;;;1.54;54.35;100337.34;4870301;29;20184;-86
2022/03/23 05:49:50;;;;;;;0.68;0.68;;;;;;;1.64;54.06;100338.91;4888478;29;20061;-88
2022/03/23 05:52:18;;;;;;;0.70;0.70;;;;;;;1.84;53.73;100339.56;4858566;29;20068;-86
2022/03/23 05:54:45;;;;;;;0.70;0.70;;;;;;;1.99;53.51;100334.53;4883828;29;20146;-86
2022/03/23 05:57:12;;;;;;;0.80;0.80;;;;;;;2.12;53.16;100323.44;4887034;29;20132;-88
2022/03/23 05:59:39;;;;;;;0.70;0.70;;;;;;;2.34;52.67;100325.56;4887028;29;20049;-86
2022/03/23 06:02:06;;;;;;;0.68;0.68;;;;;;;2.51;52.47;100334.47;4887043;29;20060;-88
2022/03/23 06:04:34;;;;;;;0.80;0.80;;;;;;;2.66;52.32;100333.84;4885066;29;20060;-84
2022/03/23 06:07:06;;;;;;;0.80;0.80;;;;;;;2.81;51.61;100335.78;4892900;29;20512;-90
2022/03/23 06:09:40;;;;;;;0.70;0.70;;;;;;;2.95;51.27;100333.47;4867548;29;20072;-91
2022/03/23 06:12:12;;;;;;;0.70;0.70;;;;;;;3.08;50.95;100331.16;4864090;29;20068;-86
2022/03/23 06:14:42;;;;;;;0.80;0.80;;;;;;;3.22;50.19;100324.38;4878704;29;20051;-85
2022/03/23 06:17:35;;;;;;;0.80;0.80;;;;;;;3.41;49.66;100328.53;4901071;29;20033;-91
2022/03/23 06:20:03;;;;;;;0.70;0.70;;;;;;;3.44;49.29;100322.88;4887674;29;20060;-85
2022/03/23 06:22:30;;;;;;;0.80;0.80;;;;;;;3.66;48.91;100329.38;4891540;29;20052;-89
2022/03/23 06:24:57;;;;;;;0.70;0.70;;;;;;;3.77;48.68;100329.03;4882293;29;20056;-88
2022/03/23 06:27:25;;;;;;;0.60;0.60;;;;;;;3.96;48.61;100324.38;4889341;29;20060;-88
2022/03/23 06:29:52;;;;;;;0.80;0.80;;;;;;;4.13;48.19;100323.34;4894391;29;20606;-93
2022/03/23 06:32:19;;;;;;;0.57;0.57;;;;;;;4.25;47.74;100324.63;4876758;29;20049;-88
2022/03/23 06:34:46;;;;;;;0.70;0.70;;;;;;;4.36;47.59;100320.75;4891121;29;20049;-87
2022/03/23 06:37:13;;;;;;;0.70;0.70;;;;;;;4.55;47.55;100315.00;4880136;29;20082;-91
2022/03/23 06:39:40;;;;;;;0.70;0.70;;;;;;;4.72;47.43;100321.13;4887419;29;20100;-92
2022/03/23 06:42:10;;;;;;;0.70;0.70;;;;;;;4.88;46.50;100319.38;4888066;29;20071;-90
2022/03/23 06:44:38;;;;;;;0.70;0.70;;;;;;;4.85;46.42;100306.34;4846155;29;20057;-87
2022/03/23 06:47:06;;;;;;;0.77;0.77;;;;;;;4.94;46.27;100316.00;4827582;29;20050;-90
2022/03/23 06:49:40;;;;;;;0.70;0.70;;;;;;;5.06;46.20;100314.56;4847918;29;20073;-93
2022/03/23 06:52:07;;;;;;;0.70;0.70;;;;;;;5.10;45.94;100313.22;4881215;29;20050;-91
2022/03/23 06:54:34;;;;;;;0.70;0.70;;;;;;;5.28;45.33;100315.59;4869201;29;20048;-90
2022/03/23 06:57:02;;;;;;;0.70;0.70;;;;;;;5.36;45.44;100309.34;4882467;29;20049;-89
2022/03/23 06:59:29;;;;;;;0.70;0.70;;;;;;;5.47;45.22;100305.41;4881107;29;20065;-89
2022/03/23 07:01:56;;;;;;;0.70;0.70;;;;;;;5.58;44.73;100310.38;4866690;29;20131;-86
2022/03/23 07:04:25;;;;;;;0.60;0.60;;;;;;;5.70;44.03;100305.41;4855207;29;20608;-88
2022/03/23 07:06:52;;;;;;;0.70;0.70;;;;;;;5.71;43.77;100304.41;4877839;29;20056;-92
2022/03/23 07:09:31;;;;;;;0.63;0.63;;;;;;;5.78;43.85;100305.34;4884307;29;20052;-91
2022/03/23 07:12:05;;;;;;;0.70;0.70;;;;;;;5.84;43.35;100308.09;4869874;29;20049;-90
2022/03/23 07:14:33;;;;;;;0.70;0.70;;;;;;;5.85;43.62;100300.94;4887873;29;20056;-92
2022/03/23 07:17:01;;;;;;;0.70;0.70;;;;;;;5.87;43.42;100290.84;4878924;29;20063;-92
2022/03/23 07:19:28;;;;;;;0.70;0.70;;;;;;;5.96;43.32;100289.78;4887907;29;20072;-92
2022/03/23 07:21:56;;;;;;;0.60;0.60;;;;;;;6.07;42.92;100292.00;4886665;29;20131;-94
2022/03/23 07:24:23;;;;;;;0.70;0.70;;;;;;;6.13;42.59;100294.97;4886123;29;20490;-91
2022/03/23 07:27:44;;;;;;;0.70;0.70;;;;;;;6.23;41.94;100298.22;4878586;29;20035;-93
2022/03/23 07:30:11;;;;;;;0.70;0.70;;;;;;;6.36;41.60;100294.91;4866060;29;20065;-92
2022/03/23 07:32:45;;;;;;;0.70;0.70;;;;;;;6.51;41.55;100287.69;4857198;29;20117;-89
2022/03/23 07:35:12;;;;;;;0.80;0.80;;;;;;;6.61;40.90;100287.34;4880672;29;20061;-91
2022/03/23 07:37:39;;;;;;;0.70;0.70;;;;;;;6.73;40.67;100291.22;4884830;29;20117;-90
2022/03/23 07:40:06;;;;;;;0.73;0.73;;;;;;;6.85;40.58;100288.91;4852079;29;20120;-90
2022/03/23 07:42:34;;;;;;;0.70;0.70;;;;;;;6.94;40.17;100293.16;4857525;29;20065;-89
2022/03/23 07:45:01;;;;;;;0.77;0.77;;;;;;;6.98;39.66;100285.53;4864299;29;20085;-90
2022/03/23 07:47:29;;;;;;;0.70;0.70;;;;;;;7.16;39.74;100283.25;4874575;29;20667;-87
2022/03/23 07:49:57;;;;;;;0.70;0.70;;;;;;;7.27;39.38;100284.59;4870425;29;20099;-87
2022/03/23 07:52:24;;;;;;;0.80;0.80;;;;;;;7.32;39.14;100277.63;4865589;29;20057;-87
2022/03/23 07:54:53;;;;;;;0.80;0.80;;;;;;;7.46;39.18;100283.94;4879135;29;20053;-88
2022/03/23 07:57:20;;;;;;;0.70;0.70;;;;;;;7.59;38.63;100273.31;4896547;29;20059;-87
2022/03/23 08:00:07;;;;;;;0.80;0.80;;;;;;;7.74;38.34;100270.53;4608558;23;10001925;-88
2022/03/23 08:02:40;;;;;;;0.80;0.80;;;;;;;7.87;37.75;100268.97;4950719;29;20115;-90
2022/03/23 08:05:09;;;;;;;0.80;0.80;;;;;;;8.11;37.78;100271.22;4950550;29;20142;-86
2022/03/23 08:07:39;;;;;;;0.80;0.80;;;;;;;8.29;37.24;100265.31;4911431;29;20146;-88
2022/03/23 08:10:06;;;;;;;0.70;0.70;;;;;;;8.28;37.21;100265.50;4937551;29;20047;-89
2022/03/23 08:12:35;;;;;;;0.80;0.80;;;;;;;8.52;36.93;100259.66;4950051;29;20055;-90
2022/03/23 08:15:02;;;;;;;0.80;0.80;;;;;;;8.85;36.72;100258.94;4938264;29;20051;-88
2022/03/23 08:17:30;;;;;;;0.77;0.77;;;;;;;9.25;36.38;100261.75;4946246;29;20051;-87
2022/03/23 08:22:43;;;;;;;0.77;0.77;;;;;;;9.47;35.22;100244.34;4939268;29;20050;-86
2022/03/23 08:25:10;;;;;;;0.80;0.80;;;;;;;9.71;34.48;100240.19;4956938;28;20059;-87
2022/03/23 08:27:37;;;;;;;0.80;0.80;;;;;;;9.83;34.13;100237.69;4939845;29;20047;-88
2022/03/23 08:30:05;;;;;;;0.80;0.80;;;;;;;10.17;33.87;100247.38;4929305;29;20067;-86
2022/03/23 08:32:32;;;;;;;0.80;0.80;;;;;;;10.15;33.21;100235.13;4947833;29;20079;-85
2022/03/23 08:34:59;;;;;;;0.80;0.80;;;;;;;10.30;32.55;100238.44;4924501;29;20894;-86
2022/03/23 08:37:29;;;;;;;0.90;0.90;;;;;;;10.09;32.38;100225.19;4961546;29;20062;-87
2022/03/23 08:39:57;;;;;;;0.80;0.80;;;;;;;10.33;32.36;100219.13;4966394;29;20090;-87
2022/03/23 08:42:24;;;;;;;0.80;0.80;;;;;;;10.75;31.84;100224.13;4956984;29;20107;-86
2022/03/23 08:44:52;;;;;;;0.70;0.70;;;;;;;10.74;31.54;100222.50;4936681;29;20094;-87
2022/03/23 08:47:19;;;;;;;0.73;0.73;;;;;;;11.12;31.30;100219.75;4922849;29;20055;-85
2022/03/23 08:49:46;;;;;;;0.85;0.85;;;;;;;11.41;30.83;100212.06;4936799;29;20090;-86
2022/03/23 08:52:13;;;;;;;0.80;0.80;;;;;;;11.96;30.29;100198.69;4916866;29;20516;-86
2022/03/23 08:54:41;;;;;;;0.80;0.80;;;;;;;11.93;29.84;100213.47;4942364;29;20058;-87
2022/03/23 08:57:09;;;;;;;0.80;0.80;;;;;;;12.19;29.37;100199.88;4908714;29;20513;-87
2022/03/23 08:59:36;;;;;;;0.80;0.80;;;;;;;12.37;28.76;100208.00;4926411;29;20064;-88
2022/03/23 09:02:07;;;;;;;0.80;0.80;;;;;;;12.21;28.73;100209.44;4912210;29;20169;-85
2022/03/23 09:04:43;;;;;;;0.80;0.80;;;;;;;12.38;28.26;100206.09;4929892;29;20511;-86
2022/03/23 09:07:11;;;;;;;0.90;0.90;;;;;;;12.81;27.71;100200.53;4922046;29;20083;-87
2022/03/23 09:09:41;;;;;;;0.80;0.80;;;;;;;13.53;26.61;100196.97;4907962;29;20133;-87
2022/03/23 09:12:09;;;;;;;0.80;0.80;;;;;;;13.33;26.31;100206.25;4923090;29;20043;-87
2022/03/23 09:14:36;;;;;;;0.70;0.70;;;;;;;13.43;26.50;100192.13;4933402;29;20075;-86
2022/03/23 09:17:04;;;;;;;0.70;0.70;;;;;;;13.57;25.70;100192.72;4924450;29;20058;-87
2022/03/23 09:19:31;;;;;;;0.77;0.77;;;;;;;13.28;25.64;100183.63;4916316;29;20059;-85
2022/03/23 09:21:59;;;;;;;0.80;0.80;;;;;;;13.66;25.46;100184.00;4939210;29;20111;-85
2022/03/23 09:24:28;;;;;;;0.70;0.70;;;;;;;13.98;24.98;100178.19;4935307;29;20051;-85
2022/03/23 09:26:55;;;;;;;0.80;0.80;;;;;;;14.54;24.64;100178.56;4889080;29;20540;-86
2022/03/23 09:29:22;;;;;;;0.80;0.80;;;;;;;14.64;24.59;100176.03;4930912;29;20055;-86
2022/03/23 09:31:50;;;;;;;0.70;0.70;;;;;;;14.82;24.33;100171.47;4906944;29;20561;-86
2022/03/23 09:34:18;;;;;;;0.73;0.73;;;;;;;14.98;24.10;100164.41;4950779;29;20047;-84
2022/03/23 09:39:31;;;;;;;0.80;0.80;;;;;;;15.79;22.94;100171.16;4913692;29;20059;-89
2022/03/23 09:41:59;;;;;;;0.70;0.70;;;;;;;15.94;22.51;100159.66;4941051;29;20519;-87
2022/03/23 09:44:29;;;;;;;0.70;0.70;;;;;;;15.87;22.38;100159.00;4920359;29;20048;-90
2022/03/23 09:47:05;;;;;;;0.70;0.70;;;;;;;16.15;22.60;100151.75;4929614;29;20154;-90
2022/03/23 09:49:33;;;;;;;0.80;0.80;;;;;;;15.88;21.73;100151.69;4937105;29;20062;-89
2022/03/23 09:52:01;;;;;;;0.70;0.70;;;;;;;15.71;22.25;100157.16;4902609;29;20044;-87
2022/03/23 09:54:28;;;;;;;0.70;0.70;;;;;;;16.04;22.06;100146.19;4952916;29;20047;-88
2022/03/23 09:56:56;;;;;;;0.70;0.70;;;;;;;16.82;22.15;100142.44;4929885;29;20133;-89
2022/03/23 09:59:23;;;;;;;0.70;0.70;;;;;;;17.55;21.18;100145.50;4875861;29;20139;-89
2022/03/23 10:01:50;;;;;;;0.70;0.70;;;;;;;17.23;21.00;100140.06;4903833;29;20056;-89
2022/03/23 10:04:19;;;;;;;0.70;0.70;;;;;;;16.95;21.79;100133.03;4899881;29;20048;-88
2022/03/23 10:07:24;;;;;;;0.77;0.77;;;;;;;17.84;21.21;100126.03;4905197;29;20076;-92
2022/03/23 10:10:19;;;;;;;0.70;0.70;;;;;;;18.59;20.62;100119.19;4902371;29;20114;-91
2022/03/23 10:13:14;;;;;;;0.70;0.70;;;;;;;18.09;19.77;100115.22;4882429;29;20448;-88
2022/03/23 10:16:18;;;;;;;0.70;0.70;;;;;;;17.49;19.09;100113.78;4855445;29;20050;-88
2022/03/23 10:18:52;;;;;;;0.70;0.70;;;;;;;16.71;19.43;100105.22;4871676;29;20088;-85
2022/03/23 10:21:27;;;;;;;0.80;0.80;;;;;;;16.45;19.59;100097.63;4864475;29;20053;-85
2022/03/23 10:23:57;;;;;;;;;;;;;;;16.12;20.04;100100.53;4890981;29;20163;-88
2022/03/23 10:26:30;;;;;;;0.82;0.82;;;;;;;15.99;19.81;100094.38;4885963;29;19983;-89
2022/03/23 10:29:19;;;;;;;0.70;0.70;;;;;;;16.10;19.65;100089.06;4869933;29;20172;-87
2022/03/23 10:32:05;;;;;;;0.70;0.70;;;;;;;16.79;19.15;100094.72;4855470;29;20145;-87
2022/03/23 10:34:38;;;;;;;0.70;0.70;;;;;;;16.84;19.25;100083.06;4870339;29;20508;-90
2022/03/23 10:37:06;;;;;;;0.85;0.85;;;;;;;17.49;18.62;100089.22;4868125;29;20137;-88
2022/03/23 10:39:34;;;;;;;0.73;0.73;;;;;;;17.40;18.39;100077.19;4879608;29;20588;-88
2022/03/23 10:42:07;;;;;;;0.80;0.80;;;;;;;17.18;18.88;100069.13;4879826;29;20079;-88
2022/03/23 10:44:35;;;;;;;0.80;0.80;;;;;;;17.41;18.73;100055.06;4919862;29;20047;-89
2022/03/23 10:47:03;;;;;;;0.80;0.80;;;;;;;17.52;18.44;100062.25;4956632;29;20062;-88
2022/03/23 10:49:36;;;;;;;0.70;0.70;;;;;;;17.45;18.06;100055.38;4940480;29;20058;-88
2022/03/23 10:52:16;;;;;;;0.70;0.70;;;;;;;17.00;18.66;100059.44;4910759;29;20047;-88
2022/03/23 10:55:00;;;;;;;0.80;0.80;;;;;;;17.28;18.64;100050.09;4910420;29;20163;-88
2022/03/23 10:57:44;;;;;;;0.73;0.73;;;;;;;17.69;18.40;100036.66;4904372;29;20229;-88
2022/03/23 11:00:19;;;;;;;0.70;0.70;;;;;;;18.55;17.81;100040.75;4925125;29;20062;-88
2022/03/23 11:02:48;;;;;;;0.77;0.77;;;;;;;19.01;17.57;100036.09;4942748;29;20540;-90
2022/03/23 11:05:35;;;;;;;0.80;0.80;;;;;;;18.36;18.23;100035.00;4918128;29;20051;-89
2022/03/23 11:08:21;;;;;;;0.80;0.80;;;;;;;18.37;18.08;100028.41;4931720;29;20112;-89
2022/03/23 11:16:49;;;;;;;1.00;1.00;;;;;;;17.67;18.05;100020.56;4880893;29;20053;-88
2022/03/23 11:19:20;;;;;;;0.70;0.70;;;;;;;17.96;18.16;100012.75;4900084;29;20070;-89
2022/03/23 11:22:12;;;;;;;0.80;0.80;;;;;;;17.85;18.41;100013.00;4928512;29;20055;-90
2022/03/23 11:24:47;;;;;;;0.82;0.82;;;;;;;18.33;18.71;100014.50;4933285;29;20872;-88
2022/03/23 11:27:20;;;;;;;0.80;0.80;;;;;;;19.84;17.52;100010.16;4923524;29;20063;-87
2022/03/23 11:29:49;;;;;;;0.60;0.60;;;;;;;20.19;16.78;100002.84;4899551;29;20463;-87
2022/03/23 11:32:19;;;;;;;0.70;0.70;;;;;;;20.03;16.78;100004.06;4905397;29;20059;-88
2022/03/23 11:34:48;;;;;;;0.70;0.70;;;;;;;20.04;16.95;99998.28;4894139;29;20048;-87
2022/03/23 11:37:19;;;;;;;0.70;0.70;;;;;;;20.59;16.26;100005.63;4880183;29;20097;-86
2022/03/23 11:39:50;;;;;;;0.70;0.70;;;;;;;19.85;16.36;99992.66;4904381;29;20487;-87
2022/03/23 11:42:20;;;;;;;0.70;0.70;;;;;;;19.69;16.29;99986.41;4889718;29;20495;-89
2022/03/23 11:44:55;;;;;;;0.70;0.70;;;;;;;19.38;16.58;99982.94;4907819;29;20107;-88
2022/03/23 11:47:54;;;;;;;0.70;0.70;;;;;;;19.71;17.00;99983.41;4884352;29;20389;-86
2022/03/23 11:50:48;;;;;;;0.70;0.70;;;;;;;19.85;16.58;99984.44;4913805;29;20096;-90
2022/03/23 11:53:28;;;;;;;0.68;0.68;;;;;;;19.94;16.28;99978.34;4898268;29;20520;-88
2022/03/23 11:56:05;;;;;;;0.70;0.70;;;;;;;19.80;16.17;99978.97;4899591;29;20053;-88
2022/03/23 11:58:36;;;;;;;0.70;0.70;;;;;;;19.75;16.43;99984.47;4898293;29;20070;-89
2022/03/23 12:01:15;;;;;;;0.70;0.70;;;;;;;19.82;16.25;99968.53;4909701;29;20057;-87